createdAt,value
2023-07-23T00:01:21.676Z,30.39
2023-07-23T00:03:48.266Z,28.75
2023-07-23T00:06:14.917Z,29.46
2023-07-23T00:08:41.546Z,28.91
2023-07-23T00:11:08.131Z,29.87
2023-07-23T00:13:34.798Z,28.68
2023-07-23T00:16:01.483Z,29.58
2023-07-23T00:18:28.077Z,27.24
2023-07-23T00:20:54.716Z,27.82
2023-07-23T00:23:21.321Z,28.14
2023-07-23T00:25:47.980Z,28.48
2023-07-23T00:28:14.626Z,28.49
2023-07-23T00:30:41.177Z,28.39
2023-07-23T00:33:07.777Z,27.07
2023-07-23T00:35:34.306Z,28.70
2023-07-23T00:38:00.835Z,29.39
2023-07-23T00:40:27.449Z,28.72
2023-07-23T00:42:53.993Z,28.55
2023-07-23T00:45:20.768Z,29.06
2023-07-23T00:47:47.386Z,28.75
2023-07-23T00:50:14.089Z,28.15
2023-07-23T00:52:40.688Z,28.22
2023-07-23T00:55:07.278Z,27.94
2023-07-23T00:57:33.822Z,28.48
2023-07-23T01:00:00.431Z,28.89
2023-07-23T01:02:27.085Z,28.49
2023-07-23T01:04:53.767Z,27.74
2023-07-23T01:07:20.302Z,28.60
2023-07-23T01:09:46.947Z,27.15
2023-07-23T01:12:13.599Z,27.92
2023-07-23T01:14:40.283Z,27.87
2023-07-23T01:17:06.868Z,27.04
2023-07-23T01:19:33.479Z,26.08
2023-07-23T01:22:00.073Z,26.87
2023-07-23T01:24:26.674Z,27.30
2023-07-23T01:26:53.239Z,27.51
2023-07-23T01:29:19.772Z,27.16
2023-07-23T01:31:46.372Z,27.77
2023-07-23T01:34:13.008Z,28.42
2023-07-23T01:36:39.665Z,28.20
2023-07-23T01:39:06.262Z,28.30
2023-07-23T01:41:32.890Z,27.90
2023-07-23T01:43:59.564Z,29.01
2023-07-23T01:46:26.172Z,27.30
2023-07-23T01:48:52.716Z,27.18
2023-07-23T01:51:19.284Z,28.81
2023-07-23T01:53:45.917Z,27.33
2023-07-23T01:56:12.580Z,27.60
2023-07-23T01:58:39.186Z,29.37
2023-07-23T02:01:05.919Z,26.55
2023-07-23T02:03:32.722Z,28.61
2023-07-23T02:05:59.329Z,29.57
2023-07-23T02:08:25.885Z,28.34
2023-07-23T02:10:52.494Z,27.59
2023-07-23T02:13:19.050Z,28.32
2023-07-23T02:15:45.643Z,28.88
2023-07-23T02:18:12.239Z,26.74
2023-07-23T02:20:38.804Z,26.73
2023-07-23T02:23:05.389Z,27.93
2023-07-23T02:25:32.020Z,27.54
2023-07-23T02:27:58.533Z,28.03
2023-07-23T02:30:25.090Z,27.10
2023-07-23T02:32:51.698Z,27.01
2023-07-23T02:35:18.312Z,27.11
2023-07-23T02:37:44.940Z,26.21
2023-07-23T02:40:11.513Z,26.57
2023-07-23T02:42:38.054Z,28.03
2023-07-23T02:45:04.678Z,26.39
2023-07-23T02:47:31.277Z,26.58
2023-07-23T02:49:57.879Z,28.02
2023-07-23T02:52:24.459Z,27.30
2023-07-23T02:54:50.985Z,28.12
2023-07-23T02:57:17.656Z,27.14
2023-07-23T02:59:44.316Z,26.30
2023-07-23T03:02:10.943Z,27.99
2023-07-23T03:04:37.626Z,25.92
2023-07-23T03:07:04.226Z,28.24
2023-07-23T03:09:30.801Z,28.96
2023-07-23T03:11:57.421Z,27.88
2023-07-23T03:14:24.006Z,25.78
2023-07-23T03:16:50.534Z,28.14
2023-07-23T03:19:17.118Z,25.67
2023-07-23T03:21:43.769Z,26.65
2023-07-23T03:24:10.357Z,25.00
2023-07-23T03:26:36.971Z,26.00
2023-07-23T03:29:03.653Z,27.84
2023-07-23T03:31:30.595Z,27.30
2023-07-23T03:33:57.345Z,27.90
2023-07-23T03:36:23.934Z,27.91
2023-07-23T03:38:50.485Z,27.28
2023-07-23T03:41:17.120Z,27.86
2023-07-23T03:43:44.747Z,27.05
2023-07-23T03:46:11.415Z,28.76
2023-07-23T03:48:38.027Z,26.89
2023-07-23T03:51:04.599Z,27.76
2023-07-23T03:53:31.172Z,28.02
2023-07-23T03:55:57.773Z,27.79
2023-07-23T03:58:24.337Z,29.68
2023-07-23T04:00:50.920Z,29.51
2023-07-23T04:03:17.516Z,27.78
2023-07-23T04:05:44.089Z,26.83
2023-07-23T04:08:10.678Z,28.35
2023-07-23T04:10:37.305Z,27.83
2023-07-23T04:13:03.920Z,27.39
2023-07-23T04:15:30.498Z,25.62
2023-07-23T04:17:57.096Z,27.71
2023-07-23T04:20:23.650Z,28.58
2023-07-23T04:22:50.221Z,29.70
2023-07-23T04:25:16.785Z,29.43
2023-07-23T04:27:43.421Z,27.41
2023-07-23T04:30:10.061Z,28.09
2023-07-23T04:32:36.726Z,28.02
2023-07-23T04:35:03.561Z,27.16
2023-07-23T04:37:30.169Z,29.94
2023-07-23T04:39:56.706Z,30.20
2023-07-23T04:42:23.202Z,26.72
2023-07-23T04:44:49.829Z,26.19
2023-07-23T04:47:16.418Z,26.74
2023-07-23T04:49:42.983Z,27.42
2023-07-23T04:52:09.580Z,27.69
2023-07-23T04:54:36.152Z,28.78
2023-07-23T04:57:02.795Z,25.72
2023-07-23T04:59:29.367Z,27.70
2023-07-23T05:01:55.955Z,28.28
2023-07-23T05:04:22.510Z,28.16
2023-07-23T05:06:49.154Z,27.88
2023-07-23T05:09:15.805Z,28.44
2023-07-23T05:11:42.384Z,26.82
2023-07-23T05:14:08.958Z,26.11
2023-07-23T05:16:35.567Z,28.77
2023-07-23T05:19:02.115Z,26.73
2023-07-23T05:21:28.958Z,27.90
2023-07-23T05:23:55.728Z,27.95
2023-07-23T05:26:22.250Z,28.73
2023-07-23T05:28:48.867Z,28.64
2023-07-23T05:31:15.496Z,29.50
2023-07-23T05:33:42.115Z,28.85
2023-07-23T05:36:08.749Z,29.63
2023-07-23T05:38:35.311Z,30.42
2023-07-23T05:41:01.905Z,29.88
2023-07-23T05:43:31.304Z,31.20
2023-07-23T05:45:57.880Z,31.58
2023-07-23T05:48:24.421Z,29.55
2023-07-23T05:50:51.036Z,29.85
2023-07-23T05:53:17.688Z,29.10
2023-07-23T05:55:44.234Z,31.22
2023-07-23T05:58:10.810Z,30.70
2023-07-23T06:00:37.409Z,28.71
2023-07-23T06:03:04.202Z,28.71
2023-07-23T06:05:30.847Z,31.73
2023-07-23T06:07:57.456Z,30.38
2023-07-23T06:10:24.092Z,28.88
2023-07-23T06:12:50.675Z,28.59
2023-07-23T06:15:17.374Z,29.51
2023-07-23T06:17:44.033Z,31.54
2023-07-23T06:20:10.648Z,29.93
2023-07-23T06:22:37.190Z,30.53
2023-07-23T06:25:03.837Z,29.59
2023-07-23T06:27:30.443Z,30.63
2023-07-23T06:29:57.016Z,29.46
2023-07-23T06:32:23.634Z,31.39
2023-07-23T06:34:50.322Z,32.60
2023-07-23T06:37:16.910Z,31.78
2023-07-23T06:39:43.544Z,31.32
2023-07-23T06:42:10.132Z,31.23
2023-07-23T06:44:36.739Z,31.62
2023-07-23T06:47:03.388Z,31.94
2023-07-23T06:49:30.123Z,31.36
2023-07-23T06:51:56.833Z,31.46
2023-07-23T06:54:23.455Z,31.62
2023-07-23T06:56:50.036Z,31.15
2023-07-23T06:59:16.598Z,31.20
2023-07-23T07:01:43.239Z,29.27
2023-07-23T07:04:09.836Z,30.53
2023-07-23T07:06:36.463Z,29.62
2023-07-23T07:09:03.050Z,29.84
2023-07-23T07:11:29.800Z,31.02
2023-07-23T07:13:56.527Z,30.26
2023-07-23T07:16:23.126Z,32.53
2023-07-23T07:18:49.775Z,32.91
2023-07-23T07:21:16.352Z,32.23
2023-07-23T07:23:42.939Z,31.80
2023-07-23T07:26:09.573Z,32.75
2023-07-23T07:28:36.157Z,31.61
2023-07-23T07:31:02.776Z,30.95
2023-07-23T07:33:29.400Z,30.57
2023-07-23T07:35:58.856Z,32.40
2023-07-23T07:38:25.419Z,32.21
2023-07-23T07:40:52.010Z,30.33
2023-07-23T07:43:18.597Z,30.26
2023-07-23T07:45:45.269Z,32.66
2023-07-23T07:48:11.895Z,31.22
2023-07-23T07:50:38.448Z,31.56
2023-07-23T07:53:05.108Z,34.30
2023-07-23T07:55:31.691Z,33.07
2023-07-23T07:57:58.230Z,34.94
2023-07-23T08:00:24.825Z,33.09
2023-07-23T08:02:51.562Z,32.80
2023-07-23T08:05:18.435Z,31.34
2023-07-23T08:07:45.055Z,33.65
2023-07-23T08:10:11.640Z,32.08
2023-07-23T08:12:38.250Z,32.50
2023-07-23T08:15:04.837Z,32.26
2023-07-23T08:17:31.435Z,31.86
2023-07-23T08:19:58.025Z,33.22
2023-07-23T08:22:24.683Z,33.08
2023-07-23T08:24:51.445Z,34.85
2023-07-23T08:27:18.025Z,33.75
2023-07-23T08:29:44.674Z,34.90
2023-07-23T08:32:11.256Z,35.40
2023-07-23T08:34:37.823Z,36.17
2023-07-23T08:37:04.340Z,34.36
2023-07-23T08:39:30.944Z,32.83
2023-07-23T08:41:57.729Z,34.00
2023-07-23T08:44:24.371Z,33.39
2023-07-23T08:46:50.933Z,34.97
2023-07-23T08:49:17.452Z,33.78
2023-07-23T08:51:44.000Z,34.97
2023-07-23T08:54:10.560Z,33.54
2023-07-23T08:56:37.960Z,32.85
2023-07-23T08:59:04.670Z,34.48
2023-07-23T09:01:31.432Z,33.81
2023-07-23T09:03:58.387Z,36.97
2023-07-23T09:06:25.018Z,34.00
2023-07-23T09:08:51.567Z,34.83
2023-07-23T09:11:18.143Z,34.48
2023-07-23T09:13:44.770Z,35.44
2023-07-23T09:16:11.342Z,35.76
2023-07-23T09:18:37.848Z,31.85
2023-07-23T09:21:04.381Z,33.89
2023-07-23T09:23:30.870Z,31.79
2023-07-23T09:25:57.419Z,34.22
2023-07-23T09:28:23.992Z,32.69
2023-07-23T09:30:50.721Z,34.73
2023-07-23T09:33:17.291Z,34.65
2023-07-23T09:35:43.857Z,33.83
2023-07-23T09:38:10.447Z,33.71
2023-07-23T09:40:36.997Z,32.86
2023-07-23T09:43:03.605Z,35.66
2023-07-23T09:45:30.146Z,37.57
2023-07-23T09:48:06.050Z,37.99
2023-07-23T09:50:41.144Z,34.07
2023-07-23T09:53:07.798Z,36.12
2023-07-23T09:55:34.373Z,35.00
2023-07-23T09:58:00.902Z,34.59
2023-07-23T10:00:27.437Z,36.92
2023-07-23T10:02:54.001Z,39.14
2023-07-23T10:05:20.613Z,37.67
2023-07-23T10:07:47.152Z,34.32
2023-07-23T10:10:13.697Z,35.61
2023-07-23T10:12:40.223Z,36.13
2023-07-23T10:15:07.053Z,36.99
2023-07-23T10:17:33.662Z,37.41
2023-07-23T10:20:00.234Z,35.91
2023-07-23T10:22:26.777Z,38.37
2023-07-23T10:24:53.480Z,38.32
2023-07-23T10:27:20.124Z,36.90
2023-07-23T10:29:46.648Z,34.73
2023-07-23T10:32:13.189Z,34.26
2023-07-23T10:34:39.729Z,34.89
2023-07-23T10:37:06.429Z,38.45
2023-07-23T10:39:33.003Z,39.52
2023-07-23T10:41:59.592Z,37.97
2023-07-23T10:44:26.344Z,37.90
2023-07-23T10:46:52.884Z,37.20
2023-07-23T10:49:19.430Z,36.58
2023-07-23T10:51:46.084Z,39.22
2023-07-23T10:54:12.625Z,42.56
2023-07-23T10:56:39.159Z,59.57
2023-07-23T10:59:05.691Z,64.70
2023-07-23T11:01:32.376Z,73.03
2023-07-23T11:03:59.226Z,78.84
2023-07-23T11:06:25.736Z,74.83
2023-07-23T11:08:52.305Z,71.60
2023-07-23T11:11:18.853Z,72.90
2023-07-23T11:13:45.398Z,73.21
2023-07-23T11:16:11.985Z,73.32
2023-07-23T11:18:40.249Z,73.02
2023-07-23T11:21:07.770Z,68.79
2023-07-23T11:23:34.485Z,67.72
2023-07-23T11:26:01.411Z,70.84
2023-07-23T11:28:28.061Z,67.06
2023-07-23T11:30:54.575Z,68.92
2023-07-23T11:33:21.116Z,66.86
2023-07-23T11:35:48.301Z,71.91
2023-07-23T11:38:16.922Z,72.55
2023-07-23T11:40:43.441Z,72.33
2023-07-23T11:43:10.072Z,70.52
2023-07-23T11:45:36.935Z,67.04
2023-07-23T11:48:03.561Z,67.88
2023-07-23T11:50:30.193Z,71.70
2023-07-23T11:52:56.782Z,76.56
2023-07-23T11:55:23.601Z,78.10
2023-07-23T11:57:50.183Z,79.93
2023-07-23T12:00:16.707Z,80.18
2023-07-23T12:02:43.295Z,81.79
2023-07-23T12:05:10.032Z,82.31
2023-07-23T12:07:36.564Z,86.21
2023-07-23T12:10:03.112Z,87.55
2023-07-23T12:12:29.848Z,87.37
2023-07-23T12:14:56.387Z,87.00
2023-07-23T12:17:22.991Z,92.46
2023-07-23T12:19:49.572Z,89.89
2023-07-23T12:22:16.156Z,89.98
2023-07-23T12:24:43.299Z,88.21
2023-07-23T12:27:10.346Z,87.79
2023-07-23T12:29:36.903Z,87.74
2023-07-23T12:32:03.468Z,89.63
2023-07-23T12:34:30.047Z,91.56
2023-07-23T12:36:56.577Z,92.32
2023-07-23T12:39:23.615Z,98.37
2023-07-23T12:41:50.213Z,93.65
2023-07-23T12:44:16.800Z,94.49
2023-07-23T12:46:43.434Z,95.30
2023-07-23T12:49:10.050Z,92.86
2023-07-23T12:51:36.811Z,92.31
2023-07-23T12:54:03.342Z,92.68
2023-07-23T12:56:30.146Z,95.44
2023-07-23T12:58:57.129Z,95.98
2023-07-23T13:01:23.788Z,94.57
2023-07-23T13:03:50.568Z,87.19
2023-07-23T13:06:17.345Z,89.56
2023-07-23T13:08:43.925Z,89.45
2023-07-23T13:11:10.525Z,90.95
2023-07-23T13:13:37.050Z,92.22
2023-07-23T13:16:03.638Z,95.02
2023-07-23T13:18:32.060Z,95.13
2023-07-23T13:20:58.632Z,97.07
2023-07-23T13:23:25.312Z,96.93
2023-07-23T13:25:52.052Z,101.44
2023-07-23T13:28:18.591Z,98.39
2023-07-23T13:30:45.399Z,97.11
2023-07-23T13:33:12.370Z,95.51
2023-07-23T13:35:39.030Z,92.61
2023-07-23T13:38:05.574Z,90.08
2023-07-23T13:40:32.089Z,88.62
2023-07-23T13:42:58.669Z,89.48
2023-07-23T13:45:25.284Z,80.17
2023-07-23T13:47:51.977Z,80.91
2023-07-23T13:50:18.573Z,83.49
2023-07-23T13:52:45.206Z,77.97
2023-07-23T13:55:11.754Z,111.42
2023-07-23T13:57:38.287Z,118.20
2023-07-23T14:00:04.930Z,123.06
2023-07-23T14:02:31.651Z,119.36
2023-07-23T14:04:58.218Z,122.40
2023-07-23T14:07:24.776Z,115.02
2023-07-23T14:09:51.341Z,114.47
2023-07-23T14:12:17.924Z,110.34
2023-07-23T14:14:44.484Z,110.44
2023-07-23T14:17:11.012Z,103.82
2023-07-23T14:19:37.596Z,104.32
2023-07-23T14:22:04.413Z,103.39
2023-07-23T14:24:31.487Z,102.94
2023-07-23T14:26:57.992Z,104.24
2023-07-23T14:29:24.628Z,98.71
2023-07-23T14:31:51.313Z,97.17
2023-07-23T14:34:17.984Z,98.48
2023-07-23T14:36:44.932Z,93.84
2023-07-23T14:39:11.488Z,96.72
2023-07-23T14:41:38.505Z,95.73
2023-07-23T14:44:05.087Z,91.33
2023-07-23T14:46:31.700Z,90.55
2023-07-23T14:48:58.351Z,88.26
2023-07-23T14:51:24.937Z,90.03
2023-07-23T14:53:51.626Z,90.19
2023-07-23T14:56:18.785Z,91.32
2023-07-23T14:58:46.027Z,86.04
2023-07-23T15:01:12.613Z,90.58
2023-07-23T15:03:39.317Z,87.78
2023-07-23T15:06:06.013Z,91.28
2023-07-23T15:08:32.851Z,88.83
2023-07-23T15:10:59.807Z,90.01
2023-07-23T15:13:26.540Z,88.67
2023-07-23T15:15:53.496Z,91.22
2023-07-23T15:18:20.208Z,88.59
2023-07-23T15:20:52.205Z,86.62
2023-07-23T15:23:18.805Z,84.74
2023-07-23T15:25:45.427Z,87.82
2023-07-23T15:28:11.958Z,86.69
2023-07-23T15:30:38.532Z,85.34
2023-07-23T15:33:05.426Z,90.75
2023-07-23T15:35:32.506Z,88.55
2023-07-23T15:37:59.077Z,84.04
2023-07-23T15:40:25.757Z,86.67
2023-07-23T15:42:52.372Z,89.08
2023-07-23T15:45:18.979Z,92.08
2023-07-23T15:47:45.668Z,88.91
2023-07-23T15:50:12.288Z,86.38
2023-07-23T15:52:38.857Z,88.02
2023-07-23T15:55:05.806Z,87.74
2023-07-23T15:57:32.572Z,90.46
2023-07-23T15:59:59.173Z,85.99
2023-07-23T16:02:25.804Z,90.11
2023-07-23T16:04:52.529Z,89.32
2023-07-23T16:07:19.111Z,89.24
2023-07-23T16:09:45.649Z,88.11
2023-07-23T16:12:12.211Z,88.62
2023-07-23T16:14:38.782Z,89.08
2023-07-23T16:17:05.454Z,91.22
2023-07-23T16:19:32.009Z,87.41
2023-07-23T16:21:58.583Z,90.21
2023-07-23T16:24:25.218Z,86.98
2023-07-23T16:26:51.815Z,87.05
2023-07-23T16:29:18.338Z,91.63
2023-07-23T16:31:44.887Z,90.73
2023-07-23T16:34:11.456Z,88.43
2023-07-23T16:36:38.049Z,89.84
2023-07-23T16:39:04.598Z,92.31
2023-07-23T16:41:31.268Z,90.75
2023-07-23T16:43:58.056Z,90.09
2023-07-23T16:46:24.620Z,94.08
2023-07-23T16:48:51.232Z,91.70
2023-07-23T16:51:17.776Z,92.85
2023-07-23T16:53:44.337Z,93.52
2023-07-23T16:56:10.877Z,92.47
2023-07-23T16:58:37.804Z,100.01
2023-07-23T17:01:04.658Z,96.24
2023-07-23T17:03:31.276Z,97.64
2023-07-23T17:05:57.883Z,95.11
2023-07-23T17:08:24.408Z,99.14
2023-07-23T17:10:50.974Z,100.43
2023-07-23T17:13:17.734Z,101.89
2023-07-23T17:15:44.335Z,100.44
2023-07-23T17:18:10.887Z,101.08
2023-07-23T17:20:37.447Z,103.47
2023-07-23T17:23:04.006Z,103.74
2023-07-23T17:25:30.618Z,102.40
2023-07-23T17:27:57.190Z,103.92
2023-07-23T17:30:23.760Z,103.53
2023-07-23T17:32:50.413Z,102.14
2023-07-23T17:35:17.010Z,106.69
2023-07-23T17:37:43.549Z,108.29
2023-07-23T17:40:10.097Z,104.91
2023-07-23T17:42:36.639Z,105.78
2023-07-23T17:45:03.193Z,105.06
2023-07-23T17:47:29.780Z,106.19
2023-07-23T17:49:56.406Z,103.54
2023-07-23T17:52:23.015Z,102.23
2023-07-23T17:54:49.652Z,103.17
2023-07-23T17:57:16.249Z,105.36
2023-07-23T17:59:42.825Z,101.74
2023-07-23T18:02:09.376Z,106.36
2023-07-23T18:04:36.015Z,106.21
2023-07-23T18:07:02.651Z,104.60
2023-07-23T18:09:29.403Z,101.41
2023-07-23T18:11:56.075Z,102.06
2023-07-23T18:14:22.642Z,100.10
2023-07-23T18:16:49.354Z,102.59
2023-07-23T18:19:16.076Z,100.49
2023-07-23T18:21:42.689Z,102.66
2023-07-23T18:24:09.289Z,104.99
2023-07-23T18:26:35.922Z,104.63
2023-07-23T18:29:02.554Z,99.87
2023-07-23T18:31:34.653Z,104.30
2023-07-23T18:34:02.285Z,103.42
2023-07-23T18:36:29.161Z,100.40
2023-07-23T18:38:56.054Z,103.66
2023-07-23T18:41:22.606Z,101.91
2023-07-23T18:43:49.225Z,102.41
2023-07-23T18:46:15.774Z,105.83
2023-07-23T18:48:42.415Z,102.68
2023-07-23T18:51:08.994Z,104.43
2023-07-23T18:53:35.633Z,103.15
2023-07-23T18:56:02.182Z,101.60
2023-07-23T18:58:28.811Z,97.01
2023-07-23T19:00:55.398Z,102.88
2023-07-23T19:03:21.910Z,98.53
2023-07-23T19:05:48.444Z,101.55
2023-07-23T19:08:15.003Z,105.40
2023-07-23T19:10:41.559Z,102.57
2023-07-23T19:13:08.255Z,105.06
2023-07-23T19:15:34.822Z,99.59
2023-07-23T19:18:01.390Z,101.56
2023-07-23T19:20:28.054Z,100.33
2023-07-23T19:22:54.584Z,100.58
2023-07-23T19:25:21.165Z,104.46
2023-07-23T19:27:50.484Z,105.02
2023-07-23T19:30:17.149Z,104.61
2023-07-23T19:32:43.714Z,100.66
2023-07-23T19:35:10.260Z,104.57
2023-07-23T19:37:36.824Z,101.23
2023-07-23T19:40:03.384Z,103.00
2023-07-23T19:42:29.919Z,101.06
2023-07-23T19:44:56.456Z,105.00
2023-07-23T19:47:23.028Z,102.27
2023-07-23T19:49:49.569Z,104.49
2023-07-23T19:52:16.178Z,105.68
2023-07-23T19:54:42.770Z,105.33
2023-07-23T19:57:09.499Z,102.73
2023-07-23T19:59:36.033Z,104.54
2023-07-23T20:02:03.158Z,108.66
2023-07-23T20:04:29.783Z,104.12
2023-07-23T20:06:56.406Z,107.38
2023-07-23T20:09:25.921Z,104.90
2023-07-23T20:11:52.692Z,102.14
2023-07-23T20:14:19.249Z,104.84
2023-07-23T20:16:45.925Z,109.83
2023-07-23T20:19:12.631Z,108.81
2023-07-23T20:21:44.390Z,106.27
2023-07-23T20:24:11.858Z,104.94
2023-07-23T20:26:38.499Z,110.74
2023-07-23T20:29:05.329Z,110.81
2023-07-23T20:31:33.796Z,110.31
2023-07-23T20:34:02.081Z,111.02
2023-07-23T20:36:28.842Z,111.10
2023-07-23T20:38:55.603Z,111.09
2023-07-23T20:41:22.953Z,113.40
2023-07-23T20:43:49.639Z,110.86
2023-07-23T20:46:16.383Z,112.93
2023-07-23T20:48:43.042Z,109.62
2023-07-23T20:51:09.664Z,112.69
2023-07-23T20:53:36.210Z,114.10
2023-07-23T20:56:02.764Z,109.48
2023-07-23T20:58:29.347Z,114.72
2023-07-23T21:00:56.125Z,111.35
2023-07-23T21:03:22.749Z,111.33
2023-07-23T21:05:51.737Z,109.32
2023-07-23T21:08:18.480Z,111.67
2023-07-23T21:10:45.046Z,109.89
2023-07-23T21:13:11.586Z,114.96
2023-07-23T21:15:38.317Z,111.84
2023-07-23T21:18:04.961Z,113.89
2023-07-23T21:20:31.554Z,113.87
2023-07-23T21:22:58.118Z,112.10
2023-07-23T21:25:24.716Z,111.68
2023-07-23T21:27:51.288Z,105.96
2023-07-23T21:30:17.865Z,104.28
2023-07-23T21:32:44.536Z,102.92
2023-07-23T21:35:11.624Z,98.64
2023-07-23T21:37:38.638Z,96.20
2023-07-23T21:40:05.316Z,101.91
2023-07-23T21:42:31.875Z,97.77
2023-07-23T21:44:58.434Z,91.46
2023-07-23T21:47:25.046Z,92.20
2023-07-23T21:49:51.622Z,91.26
2023-07-23T21:52:18.198Z,88.30
2023-07-23T21:54:44.751Z,86.49
2023-07-23T21:57:11.359Z,83.83
2023-07-23T21:59:37.959Z,86.19
2023-07-23T22:02:04.536Z,79.07
2023-07-23T22:04:31.204Z,75.25
2023-07-23T22:06:57.730Z,85.25
2023-07-23T22:09:24.572Z,76.75
2023-07-23T22:11:51.119Z,74.00
2023-07-23T22:14:17.636Z,70.68
2023-07-23T22:16:44.329Z,57.80
2023-07-23T22:19:11.077Z,65.96
2023-07-23T22:21:38.088Z,61.03
2023-07-23T22:24:04.626Z,69.63
2023-07-23T22:26:31.317Z,64.02
2023-07-23T22:28:58.098Z,59.12
2023-07-23T22:31:24.665Z,63.83
2023-07-23T22:33:51.262Z,61.43
2023-07-23T22:36:17.801Z,64.12
2023-07-23T22:38:44.319Z,61.45
2023-07-23T22:41:10.880Z,63.81
2023-07-23T22:43:38.964Z,59.52
2023-07-23T22:46:09.284Z,59.16
2023-07-23T22:48:35.868Z,60.83
2023-07-23T22:51:03.354Z,58.05
2023-07-23T22:53:30.127Z,57.07
2023-07-23T22:55:56.757Z,59.64
2023-07-23T22:58:23.363Z,56.45
2023-07-23T23:00:49.959Z,56.94
2023-07-23T23:03:16.649Z,55.57
2023-07-23T23:05:43.414Z,56.99
2023-07-23T23:08:09.954Z,58.80
2023-07-23T23:10:36.638Z,62.83
2023-07-23T23:13:04.207Z,56.07
2023-07-23T23:15:30.822Z,59.35
2023-07-23T23:17:57.447Z,55.78
2023-07-23T23:20:24.100Z,57.61
2023-07-23T23:22:50.734Z,56.38
2023-07-23T23:25:17.330Z,56.78
2023-07-23T23:27:44.041Z,56.01
2023-07-23T23:30:10.780Z,56.27
2023-07-23T23:32:37.480Z,57.73
2023-07-23T23:35:04.137Z,55.43
2023-07-23T23:37:30.710Z,54.81
2023-07-23T23:39:57.387Z,57.74
2023-07-23T23:42:24.004Z,55.09
2023-07-23T23:44:50.603Z,54.08
2023-07-23T23:47:17.178Z,51.13
2023-07-23T23:49:43.744Z,53.80
2023-07-23T23:52:10.394Z,54.82
2023-07-23T23:54:37.182Z,54.01
2023-07-23T23:57:03.790Z,55.01
2023-07-23T23:59:30.302Z,50.56
